Time;durP1;ratioP1;P1;durP2;ratioP2;P2;SDS_P1;SDS_P2;PMS_P1;PMS_P2;Temp;Humidity;BMP_temperature;BMP_pressure;BME280_temperature;BME280_humidity;BME280_pressure;Samples;Min_cycle;Max_cycle;Signal;HPM_P1;HPM_P2
2023/01/16 00:00:46;;;;;;;7.80;4.63;;;;;;;8.68;78.11;99604.78;5045814;28;20029;-71
2023/01/16 00:03:12;;;;;;;8.97;4.63;;;;;;;9.51;74.94;99600.22;5049533;28;20123;-71
2023/01/16 00:05:37;;;;;;;10.90;4.37;;;;;;;9.07;75.32;99593.50;5050432;28;20416;-70
2023/01/16 00:08:02;;;;;;;8.83;3.97;;;;;;;9.47;73.29;99584.69;5051565;28;20035;-71
2023/01/16 00:10:28;;;;;;;13.53;4.00;;;;;;;8.85;74.64;99578.34;5048463;28;20041;-71
2023/01/16 00:12:53;;;;;;;7.83;4.40;;;;;;;9.43;72.25;99580.47;5037887;28;20049;-71
2023/01/16 00:15:18;;;;;;;7.40;3.93;;;;;;;9.48;71.56;99582.03;5030042;28;20128;-71
2023/01/16 00:17:44;;;;;;;6.20;3.50;;;;;;;8.82;71.70;99581.03;5042415;28;20145;-71
2023/01/16 00:20:10;;;;;;;11.80;3.63;;;;;;;9.52;70.94;99569.78;5050940;28;20039;-71
2023/01/16 00:22:35;;;;;;;9.00;3.40;;;;;;;9.34;70.58;99571.97;5048368;28;20569;-72
2023/01/16 00:25:00;;;;;;;6.30;3.27;;;;;;;9.31;71.17;99566.84;5051394;28;20033;-71
2023/01/16 00:27:26;;;;;;;7.67;2.90;;;;;;;8.77;72.88;99567.25;5050259;28;20024;-72
2023/01/16 00:29:51;;;;;;;4.07;3.33;;;;;;;8.44;78.31;99567.06;5050154;28;20029;-71
2023/01/16 00:32:17;;;;;;;5.90;3.27;;;;;;;8.67;75.52;99558.78;5049480;28;20400;-71
2023/01/16 00:34:42;;;;;;;7.03;3.60;;;;;;;8.80;74.87;99554.16;5049541;28;20029;-71
2023/01/16 00:37:07;;;;;;;6.47;3.90;;;;;;;8.81;75.92;99555.88;5048921;28;20051;-71
2023/01/16 00:39:33;;;;;;;10.60;4.97;;;;;;;8.76;75.30;99548.13;5049031;28;20692;-71
2023/01/16 00:41:58;;;;;;;8.27;4.93;;;;;;;9.23;74.05;99547.91;5051529;28;20037;-71
2023/01/16 00:44:24;;;;;;;16.43;6.07;;;;;;;8.91;74.39;99536.50;5032551;28;20083;-71
2023/01/16 00:46:49;;;;;;;12.90;5.70;;;;;;;9.51;73.29;99513.28;5048962;28;20341;-71
2023/01/16 00:49:14;;;;;;;10.97;5.63;;;;;;;9.12;74.05;99529.94;5049518;28;20037;-71
2023/01/16 00:51:40;;;;;;;14.00;6.70;;;;;;;9.12;73.28;99518.63;5047419;28;20031;-72
2023/01/16 00:54:05;;;;;;;11.37;5.77;;;;;;;8.77;75.23;99512.53;5048790;28;20119;-71
2023/01/16 00:56:30;;;;;;;14.50;5.80;;;;;;;9.25;73.34;99500.94;5031147;28;20459;-71
2023/01/16 00:58:56;;;;;;;12.97;6.43;;;;;;;9.39;71.64;99500.59;5029106;28;20025;-71
2023/01/16 01:01:21;;;;;;;12.03;6.40;;;;;;;9.32;69.64;99490.28;5044450;28;20021;-71
2023/01/16 01:03:47;;;;;;;13.00;6.47;;;;;;;8.75;72.20;99481.31;5051314;28;20032;-72
2023/01/16 01:06:12;;;;;;;15.43;7.00;;;;;;;8.97;74.61;99472.94;5047899;28;20048;-71
2023/01/16 01:08:38;;;;;;;19.37;7.37;;;;;;;8.94;74.81;99479.13;5049329;28;20032;-71
2023/01/16 01:11:07;;;;;;;17.07;6.80;;;;;;;9.06;73.18;99467.50;5049773;28;20078;-71
2023/01/16 01:13:33;;;;;;;15.83;5.83;;;;;;;9.28;73.63;99466.97;5047792;28;20048;-71
2023/01/16 01:15:59;;;;;;;17.63;6.33;;;;;;;8.57;74.94;99464.38;5042132;28;20086;-71
2023/01/16 01:18:24;;;;;;;19.10;6.47;;;;;;;9.13;73.60;99457.78;5049673;28;20031;-71
2023/01/16 01:20:49;;;;;;;13.13;7.23;;;;;;;8.88;75.83;99447.97;5048889;28;20053;-71
2023/01/16 01:23:15;;;;;;;15.00;7.00;;;;;;;8.18;77.21;99446.13;5050714;28;20443;-71
2023/01/16 01:25:40;;;;;;;12.60;6.80;;;;;;;8.52;76.56;99445.38;5047700;28;20420;-71
2023/01/16 01:28:05;;;;;;;19.13;7.87;;;;;;;8.30;78.78;99435.44;5048615;28;20104;-71
2023/01/16 01:30:31;;;;;;;18.63;8.13;;;;;;;8.81;78.35;99425.59;5049802;28;20039;-71
2023/01/16 01:32:56;;;;;;;17.13;8.83;;;;;;;8.50;78.60;99426.31;5043297;28;20036;-71
2023/01/16 01:35:21;;;;;;;19.63;8.50;;;;;;;8.31;78.50;99428.47;5037428;28;20064;-71
2023/01/16 01:37:47;;;;;;;18.57;7.47;;;;;;;8.12;81.73;99420.25;5050604;28;20063;-71
2023/01/16 01:40:12;;;;;;;20.80;7.63;;;;;;;8.76;77.01;99401.41;5049427;28;20025;-70
2023/01/16 01:42:42;;;;;;;19.23;7.63;;;;;;;8.62;74.98;99399.97;5044456;28;20342;-72
2023/01/16 01:45:15;;;;;;;14.20;6.60;;;;;;;8.30;80.41;99398.97;5042678;28;20116;-72
2023/01/16 01:48:06;;;;;;;14.47;7.27;;;;;;;8.49;80.71;99389.03;5033266;28;20111;-72
2023/01/16 01:50:53;;;;;;;18.27;6.00;;;;;;;8.22;80.27;99389.66;5042505;28;20056;-73
2023/01/16 01:53:25;;;;;;;18.10;5.73;;;;;;;8.70;77.44;99378.13;5046904;28;20083;-71
2023/01/16 01:55:52;;;;;;;13.48;6.03;;;;;;;8.91;77.33;99369.72;5049100;28;20037;-72
2023/01/16 01:58:22;;;;;;;13.33;4.43;;;;;;;8.26;79.74;99376.53;5050218;28;20027;-72
2023/01/16 02:00:52;;;;;;;13.73;5.47;;;;;;;8.82;77.26;99369.97;5048322;28;20025;-72
2023/01/16 02:03:25;;;;;;;15.23;4.27;;;;;;;9.22;74.55;99357.59;5038153;28;20036;-72
2023/01/16 02:05:55;;;;;;;10.13;4.80;;;;;;;8.79;73.80;99349.19;5038866;28;20041;-71
2023/01/16 02:08:25;;;;;;;13.90;3.87;;;;;;;8.90;76.23;99339.38;5049352;28;20029;-71
2023/01/16 02:11:00;;;;;;;16.13;4.07;;;;;;;8.85;76.00;99337.75;5048985;28;20120;-71
2023/01/16 02:13:26;;;;;;;10.93;3.90;;;;;;;8.60;76.52;99344.47;5046825;28;20029;-72
2023/01/16 02:22:28;;;;;;;9.10;4.13;;;;;;;8.97;73.30;99333.09;5013489;28;20044;-71
2023/01/16 02:25:21;;;;;;;17.93;5.60;;;;;;;8.60;76.05;99328.84;5028323;28;20573;-71
2023/01/16 02:27:52;;;;;;;12.35;5.45;;;;;;;8.96;74.19;99320.09;5048548;28;20060;-71
2023/01/16 02:30:40;;;;;;;17.87;5.37;;;;;;;9.17;73.72;99314.25;5046770;28;20036;-71
2023/01/16 02:33:44;;;;;;;14.77;5.87;;;;;;;9.07;75.36;99317.19;5028183;28;20140;-71
2023/01/16 02:36:23;;;;;;;12.90;5.90;;;;;;;8.96;73.62;99320.94;5040183;28;20041;-71
2023/01/16 02:39:05;;;;;;;11.17;4.70;;;;;;;9.33;73.07;99304.25;5047653;28;20040;-71
2023/01/16 02:41:50;;;;;;;16.73;5.73;;;;;;;9.12;72.35;99284.00;5049616;28;20483;-71
2023/01/16 02:44:47;;;;;;;14.90;5.30;;;;;;;9.40;70.84;99276.25;5048201;28;20104;-71
2023/01/16 02:47:36;;;;;;;13.10;5.27;;;;;;;9.68;69.82;99273.66;5031138;28;20110;-71
2023/01/16 02:50:37;;;;;;;11.23;4.37;;;;;;;10.11;67.36;99262.72;5047613;28;20543;-72
2023/01/16 02:53:24;;;;;;;15.70;5.20;;;;;;;10.59;63.82;99250.69;5042182;28;20114;-69
2023/01/16 02:56:09;;;;;;;12.70;4.87;;;;;;;10.74;61.35;99244.06;5047302;28;20031;-72
2023/01/16 02:58:39;;;;;;;13.43;4.50;;;;;;;10.99;60.59;99228.31;5031019;28;20033;-69
2023/01/16 03:01:07;;;;;;;12.23;5.33;;;;;;;9.83;66.47;99220.09;5032199;28;20029;-70
2023/01/16 03:04:02;;;;;;;13.40;5.43;;;;;;;10.35;64.02;99217.53;5041872;28;20029;-71
2023/01/16 03:06:44;;;;;;;22.83;5.60;;;;;;;9.91;64.57;99206.81;5050113;28;20052;-69
2023/01/16 03:09:23;;;;;;;12.70;4.13;;;;;;;10.38;63.73;99210.50;5051917;28;20029;-70
2023/01/16 03:12:25;;;;;;;9.97;4.20;;;;;;;9.99;64.05;99204.81;5043090;28;20041;-70
2023/01/16 03:15:03;;;;;;;10.80;4.23;;;;;;;9.85;64.63;99196.59;5037472;28;20515;-70
2023/01/16 03:18:09;;;;;;;11.33;5.13;;;;;;;10.05;65.05;99195.06;5050905;28;20029;-71
2023/01/16 03:20:37;;;;;;;10.77;5.30;;;;;;;9.37;67.21;99194.63;5051656;28;20036;-73
2023/01/16 03:23:39;;;;;;;7.47;3.93;;;;;;;9.92;66.47;99174.59;5052709;28;20128;-72
2023/01/16 03:26:19;;;;;;;10.10;3.80;;;;;;;9.62;65.35;99168.66;5023985;28;20033;-71
2023/01/16 03:29:07;;;;;;;8.43;3.00;;;;;;;10.15;64.83;99152.06;5035095;28;20292;-71
2023/01/16 03:31:48;;;;;;;5.87;2.80;;;;;;;9.61;67.07;99159.94;5034230;28;20025;-73
2023/01/16 03:34:13;;;;;;;5.63;2.30;;;;;;;9.97;64.23;99153.56;5050618;28;20028;-71
2023/01/16 03:36:51;;;;;;;8.90;2.70;;;;;;;9.45;67.51;99153.53;5053078;28;20017;-72
2023/01/16 03:39:21;;;;;;;3.30;1.90;;;;;;;9.95;66.05;99135.34;5051401;28;20099;-71
2023/01/16 03:41:50;;;;;;;7.63;2.70;;;;;;;9.73;64.71;99129.16;5048209;28;20078;-73
2023/01/16 03:44:25;;;;;;;5.33;1.83;;;;;;;9.90;64.45;99124.19;5036066;28;20117;-71
2023/01/16 03:46:51;;;;;;;8.10;1.83;;;;;;;9.59;65.00;99114.81;5048108;28;20178;-72
2023/01/16 03:49:28;;;;;;;9.27;1.60;;;;;;;10.16;63.64;99109.38;5050010;28;20427;-72
2023/01/16 03:51:59;;;;;;;8.50;2.17;;;;;;;9.43;66.00;99092.75;5042115;28;20041;-70
2023/01/16 03:54:40;;;;;;;5.00;1.70;;;;;;;10.16;64.61;99085.88;5047951;28;20090;-71
2023/01/16 03:57:12;;;;;;;9.43;2.07;;;;;;;9.45;66.52;99072.66;5051149;28;20475;-72
2023/01/16 03:59:39;;;;;;;10.65;3.10;;;;;;;9.98;66.28;99061.28;5048214;28;20119;-71
2023/01/16 04:02:14;;;;;;;3.07;1.33;;;;;;;9.99;66.82;99063.00;5042331;28;20025;-71
2023/01/16 04:04:55;;;;;;;9.47;1.47;;;;;;;9.65;66.44;99051.13;5046272;28;20085;-70
2023/01/16 04:07:26;;;;;;;6.77;1.50;;;;;;;9.32;67.39;99049.63;5047362;28;20060;-71
2023/01/16 04:09:56;;;;;;;9.57;1.67;;;;;;;9.44;68.46;99034.47;5049286;28;20029;-71
2023/01/16 04:12:27;;;;;;;7.73;1.70;;;;;;;10.08;66.15;99017.44;5047831;28;20033;-72
2023/01/16 04:14:58;;;;;;;4.47;2.83;;;;;;;9.97;65.65;99007.38;5031461;28;20036;-71
2023/01/16 04:17:23;;;;;;;7.27;1.47;;;;;;;10.38;64.52;98991.13;5052074;28;20513;-71
2023/01/16 04:19:49;;;;;;;8.70;1.30;;;;;;;9.67;66.63;99000.63;5051457;28;20033;-71
2023/01/16 04:22:21;;;;;;;5.87;1.37;;;;;;;9.90;65.01;98993.69;5048793;28;20032;-71
2023/01/16 04:24:47;;;;;;;5.78;1.70;;;;;;;10.04;65.20;98992.34;5050602;28;20086;-71
2023/01/16 04:27:13;;;;;;;5.27;1.60;;;;;;;9.39;67.61;98985.06;5040994;28;20031;-71
2023/01/16 04:29:38;;;;;;;8.23;1.63;;;;;;;10.31;63.46;98967.81;5049518;28;20037;-71
2023/01/16 04:32:04;;;;;;;3.93;1.40;;;;;;;9.71;64.96;98961.38;5049818;28;20454;-71
2023/01/16 04:34:29;;;;;;;5.53;1.93;;;;;;;9.73;63.64;98959.56;5049160;28;20029;-73
2023/01/16 04:36:54;;;;;;;8.20;1.60;;;;;;;9.65;66.53;98945.03;5050098;28;20055;-70
2023/01/16 04:39:20;;;;;;;5.73;1.47;;;;;;;8.77;68.01;98936.78;5049692;28;20064;-71
2023/01/16 04:41:50;;;;;;;5.27;1.43;;;;;;;9.37;66.81;98933.88;5048775;28;20036;-72
2023/01/16 04:44:16;;;;;;;3.30;1.73;;;;;;;8.93;67.64;98924.94;5044109;28;20033;-70
2023/01/16 04:46:41;;;;;;;7.20;1.73;;;;;;;9.29;67.94;98921.97;5030520;28;20044;-71
2023/01/16 04:49:07;;;;;;;7.10;1.83;;;;;;;9.72;66.39;98897.84;5049748;28;20032;-71
2023/01/16 04:51:33;;;;;;;11.40;2.50;;;;;;;8.69;71.32;98894.50;5049885;28;20037;-72
2023/01/16 04:53:58;;;;;;;7.10;1.73;;;;;;;9.04;69.53;98885.50;5049445;28;20451;-71
2023/01/16 04:56:24;;;;;;;7.30;1.70;;;;;;;9.85;67.46;98873.00;5042081;28;20087;-71
2023/01/16 04:58:53;;;;;;;9.67;1.67;;;;;;;9.79;65.82;98860.19;5045555;28;20680;-72
2023/01/16 05:01:19;;;;;;;8.70;1.73;;;;;;;9.36;66.42;98853.97;5050973;28;20057;-69
2023/01/16 05:03:44;;;;;;;9.27;2.20;;;;;;;9.81;66.86;98840.09;5048622;28;20083;-69
2023/01/16 05:06:10;;;;;;;7.20;1.40;;;;;;;9.90;64.08;98837.13;5049669;28;20183;-72
2023/01/16 05:08:36;;;;;;;6.67;2.00;;;;;;;10.12;64.95;98824.06;5049091;28;20036;-72
2023/01/16 05:11:02;;;;;;;4.97;1.90;;;;;;;10.25;61.63;98819.22;5043165;28;20448;-72
2023/01/16 05:13:28;;;;;;;6.57;2.00;;;;;;;9.95;64.21;98806.47;5030788;28;20029;-70
2023/01/16 05:15:53;;;;;;;7.63;1.73;;;;;;;9.62;65.02;98791.22;5030027;28;20495;-73
2023/01/16 05:18:19;;;;;;;11.27;1.73;;;;;;;10.82;62.48;98787.25;5030261;28;20025;-73
2023/01/16 05:20:44;;;;;;;8.13;2.30;;;;;;;10.87;59.70;98769.63;5045494;28;20033;-72
2023/01/16 05:23:10;;;;;;;8.70;1.80;;;;;;;10.30;63.08;98758.97;5048749;28;20124;-72
2023/01/16 05:25:36;;;;;;;6.93;2.17;;;;;;;10.65;61.12;98752.28;5047845;28;20039;-72
2023/01/16 05:28:02;;;;;;;4.77;1.60;;;;;;;10.19;62.02;98746.34;5032281;28;20048;-71
2023/01/16 05:30:27;;;;;;;6.60;1.70;;;;;;;9.95;63.34;98743.84;5030428;28;20030;-71
2023/01/16 05:32:53;;;;;;;7.77;1.73;;;;;;;10.11;64.20;98735.38;5042825;28;20032;-70
2023/01/16 05:35:19;;;;;;;5.33;1.80;;;;;;;9.11;67.59;98725.38;5037146;28;20040;-71
2023/01/16 05:37:45;;;;;;;4.97;2.43;;;;;;;9.92;66.42;98719.63;5048084;28;20076;-71
2023/01/16 05:40:11;;;;;;;6.17;1.40;;;;;;;9.84;66.52;98709.50;5030239;28;20086;-71
2023/01/16 05:42:37;;;;;;;15.17;2.63;;;;;;;9.92;65.80;98707.44;5040128;28;20377;-71
2023/01/16 05:45:03;;;;;;;9.87;4.03;;;;;;;9.79;66.08;98703.63;5047311;28;20032;-72
2023/01/16 05:47:28;;;;;;;5.57;1.73;;;;;;;9.56;67.35;98699.31;5049220;28;20435;-73
2023/01/16 05:49:53;;;;;;;4.90;2.10;;;;;;;9.62;68.82;98684.28;5049196;28;20644;-72
2023/01/16 05:52:19;;;;;;;8.23;1.73;;;;;;;9.65;68.68;98684.16;5048300;28;20024;-72
2023/01/16 05:54:44;;;;;;;10.37;2.87;;;;;;;10.10;68.29;98668.44;5048183;28;20078;-72
2023/01/16 05:57:10;;;;;;;5.87;1.60;;;;;;;9.87;67.61;98662.41;5071117;28;20531;-73
2023/01/16 05:59:36;;;;;;;10.17;1.70;;;;;;;9.33;69.38;98668.03;5030197;28;20400;-72
2023/01/16 06:02:01;;;;;;;7.73;1.67;;;;;;;9.61;70.17;98656.50;5032734;28;20025;-71
2023/01/16 06:04:26;;;;;;;4.53;1.60;;;;;;;9.78;69.82;98657.56;5048614;28;20028;-71
2023/01/16 06:06:53;;;;;;;10.93;1.90;;;;;;;10.24;68.25;98650.41;5048559;28;20021;-71
2023/01/16 06:09:18;;;;;;;10.23;1.37;;;;;;;10.63;66.45;98639.16;5048654;28;20108;-71
2023/01/16 06:11:43;;;;;;;7.33;2.00;;;;;;;10.66;64.82;98632.91;5045416;28;20048;-71
2023/01/16 06:14:09;;;;;;;7.70;1.97;;;;;;;10.23;67.25;98626.97;5046070;28;20052;-71
2023/01/16 06:16:34;;;;;;;4.10;1.80;;;;;;;9.59;70.67;98632.25;5050074;28;20036;-71
2023/01/16 06:19:01;;;;;;;11.50;1.90;;;;;;;9.81;70.06;98615.72;5048563;28;20377;-71
2023/01/16 06:21:27;;;;;;;8.07;1.93;;;;;;;10.48;68.50;98605.88;5048071;28;20021;-71
2023/01/16 06:23:52;;;;;;;5.83;1.50;;;;;;;9.75;70.15;98605.53;5035021;28;20429;-70
2023/01/16 06:26:19;;;;;;;9.37;2.10;;;;;;;9.58;74.13;98598.41;5047135;28;20033;-71
2023/01/16 06:28:45;;;;;;;9.90;2.30;;;;;;;10.23;71.28;98588.66;5031985;28;20061;-69
2023/01/16 06:31:10;;;;;;;5.37;1.60;;;;;;;9.94;71.72;98584.72;5034153;28;20083;-71
2023/01/16 06:33:35;;;;;;;8.57;2.00;;;;;;;9.15;77.74;98577.56;5052826;28;20096;-71
2023/01/16 06:36:01;;;;;;;7.33;2.60;;;;;;;10.04;74.72;98559.06;5052382;28;20036;-69
2023/01/16 06:38:26;;;;;;;4.73;1.83;;;;;;;9.18;77.94;98553.97;5047019;28;20075;-70
2023/01/16 06:40:56;;;;;;;7.23;1.90;;;;;;;9.34;79.21;98560.25;5039028;28;20081;-70
2023/01/16 06:43:25;;;;;;;7.17;1.60;;;;;;;8.97;79.19;98550.44;5036825;28;20116;-71
2023/01/16 06:45:51;;;;;;;8.90;1.63;;;;;;;9.20;81.57;98552.13;5048879;28;20043;-69
2023/01/16 06:48:17;;;;;;;13.03;2.27;;;;;;;9.61;79.57;98531.28;5065471;28;20033;-70
2023/01/16 06:50:43;;;;;;;7.93;1.40;;;;;;;8.97;77.81;98535.66;5033418;28;20022;-71
2023/01/16 06:53:09;;;;;;;11.77;2.60;;;;;;;9.91;77.29;98520.44;5033727;28;20164;-70
2023/01/16 06:55:35;;;;;;;9.37;1.60;;;;;;;9.91;76.45;98507.41;5044301;28;20120;-71
2023/01/16 06:58:00;;;;;;;6.83;1.50;;;;;;;9.03;82.13;98503.31;5047635;28;20025;-71
2023/01/16 07:00:26;;;;;;;4.27;2.07;;;;;;;9.32;77.50;98504.69;5046053;28;20462;-71
2023/01/16 07:02:54;;;;;;;8.30;1.43;;;;;;;9.43;78.63;98483.38;5032362;28;20401;-71
2023/01/16 07:05:20;;;;;;;13.33;1.87;;;;;;;10.20;75.34;98466.09;5032276;28;20060;-71
2023/01/16 07:07:45;;;;;;;7.77;1.57;;;;;;;9.65;75.02;98459.00;5046739;28;20029;-71
2023/01/16 07:10:13;;;;;;;6.53;1.43;;;;;;;9.45;75.83;98452.03;5085002;28;20124;-71
2023/01/16 07:12:39;;;;;;;11.27;1.40;;;;;;;8.85;79.68;98442.38;5050902;28;20044;-71
2023/01/16 07:23:26;;;;;;;21.63;2.27;;;;;;;9.99;73.77;98406.13;5053218;28;20047;-70
2023/01/16 07:25:53;;;;;;;9.40;1.70;;;;;;;9.77;77.80;98390.63;5052371;28;20039;-70
2023/01/16 07:28:19;;;;;;;8.07;1.73;;;;;;;9.79;76.55;98382.72;5051926;28;20037;-71
2023/01/16 07:30:47;;;;;;;6.23;1.83;;;;;;;9.78;78.29;98374.06;5049470;28;20031;-70
2023/01/16 07:33:13;;;;;;;8.60;1.67;;;;;;;9.64;78.54;98368.59;5071434;28;20089;-71
2023/01/16 07:35:38;;;;;;;9.60;1.60;;;;;;;9.90;75.96;98361.34;5053333;28;20485;-71
2023/01/16 07:38:04;;;;;;;6.60;1.73;;;;;;;9.22;76.25;98357.44;5052388;28;20024;-71
2023/01/16 07:40:29;;;;;;;6.67;1.90;;;;;;;10.19;74.63;98354.75;5038581;28;20025;-71
2023/01/16 07:42:55;;;;;;;4.67;1.90;;;;;;;9.59;78.92;98342.75;5048783;28;20033;-71
2023/01/16 07:45:20;;;;;;;9.90;2.37;;;;;;;10.19;76.15;98328.63;5049938;28;20036;-71
2023/01/16 07:47:46;;;;;;;9.13;2.13;;;;;;;10.23;75.01;98332.78;5046349;28;20028;-71
2023/01/16 07:50:12;;;;;;;10.33;1.73;;;;;;;9.54;77.08;98312.56;5051372;28;20025;-71
2023/01/16 07:52:37;;;;;;;7.33;1.77;;;;;;;9.54;77.25;98316.03;5047181;28;20542;-71
2023/01/16 07:55:03;;;;;;;4.30;1.60;;;;;;;9.56;76.69;98318.56;5058478;28;20044;-72
2023/01/16 07:57:29;;;;;;;7.40;2.17;;;;;;;10.11;74.68;98300.31;5051781;28;20033;-71
2023/01/16 07:59:54;;;;;;;10.33;1.70;;;;;;;9.76;72.60;98300.22;5051444;28;20370;-71
2023/01/16 08:02:20;;;;;;;5.37;1.57;;;;;;;9.41;75.65;98297.50;5050660;28;20021;-71
2023/01/16 08:04:46;;;;;;;7.00;1.77;;;;;;;9.60;78.44;98296.63;5050743;28;20681;-71
2023/01/16 08:07:11;;;;;;;4.97;2.50;;;;;;;9.77;78.06;98285.44;5049444;28;20025;-71
2023/01/16 08:09:37;;;;;;;6.40;2.00;;;;;;;9.19;78.94;98283.72;5033499;28;20037;-71
2023/01/16 08:12:02;;;;;;;7.57;1.47;;;;;;;9.95;77.00;98268.88;5047836;28;20025;-71
2023/01/16 08:14:28;;;;;;;5.33;1.57;;;;;;;10.13;72.79;98268.91;5029391;28;20072;-71
2023/01/16 08:16:53;;;;;;;8.40;1.53;;;;;;;8.97;79.73;98259.47;5032039;28;20064;-72
2023/01/16 08:19:18;;;;;;;4.40;1.20;;;;;;;9.58;79.45;98259.34;5030350;28;20032;-71
2023/01/16 08:21:44;;;;;;;3.60;1.40;;;;;;;10.13;74.13;98245.41;5046700;28;20040;-71
2023/01/16 08:24:12;;;;;;;8.10;1.73;;;;;;;8.60;85.12;98245.47;5049915;28;20044;-72
2023/01/16 08:26:38;;;;;;;4.83;1.37;;;;;;;9.22;80.82;98242.75;5049570;28;20029;-71
2023/01/16 08:29:04;;;;;;;3.77;1.37;;;;;;;9.04;83.15;98227.91;5049902;28;20124;-71
2023/01/16 08:31:31;;;;;;;7.00;1.60;;;;;;;9.19;83.23;98232.47;5038021;28;20116;-71
2023/01/16 08:33:56;;;;;;;6.90;1.50;;;;;;;9.11;84.10;98224.16;5037802;28;20025;-71
2023/01/16 08:36:22;;;;;;;11.67;1.70;;;;;;;9.10;83.68;98212.84;5039270;28;20074;-72
2023/01/16 08:38:48;;;;;;;6.17;1.57;;;;;;;8.90;85.31;98216.38;5063445;28;20091;-72
2023/01/16 08:52:11;;;;;;;5.67;2.07;;;;;;;9.26;80.42;98197.38;5049386;28;20123;-71
2023/01/16 08:54:37;;;;;;;7.40;1.90;;;;;;;9.29;84.16;98184.19;5050445;28;20107;-71
2023/01/16 08:57:02;;;;;;;6.67;2.10;;;;;;;9.56;83.05;98165.56;5046979;28;20032;-71
2023/01/16 08:59:33;;;;;;;5.40;1.90;;;;;;;8.71;86.63;98181.63;5049044;28;20036;-72
2023/01/16 09:02:02;;;;;;;4.67;1.53;;;;;;;8.96;84.50;98174.41;5038140;28;20102;-72
2023/01/16 09:04:28;;;;;;;7.40;2.30;;;;;;;9.31;81.87;98171.06;5046909;28;20461;-72
2023/01/16 09:06:54;;;;;;;2.80;1.70;;;;;;;9.36;86.47;98165.66;5050390;28;20120;-72
2023/01/16 09:09:20;;;;;;;6.63;1.93;;;;;;;8.47;88.81;98171.41;5047459;28;20031;-72
2023/01/16 09:14:29;;;;;;;3.77;1.90;;;;;;;9.54;83.33;98143.91;5049940;28;20121;-72
2023/01/16 09:16:55;;;;;;;4.90;1.97;;;;;;;8.95;86.82;98151.88;5047043;28;20540;-71
2023/01/16 09:19:20;;;;;;;4.60;1.80;;;;;;;8.72;90.99;98149.47;5047803;28;20036;-72
2023/01/16 09:21:46;;;;;;;5.23;2.17;;;;;;;9.26;86.21;98133.94;5045555;28;20021;-72
2023/01/16 09:24:11;;;;;;;4.07;2.00;;;;;;;9.23;83.24;98127.16;5047746;28;20075;-71
2023/01/16 09:26:36;;;;;;;4.83;1.67;;;;;;;9.14;85.10;98124.97;5035660;28;20079;-72
2023/01/16 09:29:02;;;;;;;4.40;1.40;;;;;;;9.66;82.93;98125.03;5049323;28;20028;-72
2023/01/16 09:31:27;;;;;;;3.67;1.63;;;;;;;9.17;85.10;98117.00;5044845;28;20041;-72
2023/01/16 09:33:54;;;;;;;5.53;1.80;;;;;;;9.32;83.97;98126.69;5050597;28;20040;-72
2023/01/16 09:36:20;;;;;;;6.10;1.53;;;;;;;9.27;86.32;98113.06;5048592;28;20040;-72
2023/01/16 09:38:45;;;;;;;2.80;1.80;;;;;;;8.99;91.36;98111.72;5049789;28;20767;-72
2023/01/16 09:44:03;;;;;;;6.80;1.70;;;;;;;9.48;84.97;98102.50;5045979;28;20170;-72
2023/01/16 09:46:33;;;;;;;4.20;1.70;;;;;;;9.44;85.73;98095.75;5046024;28;20125;-72
2023/01/16 09:49:05;;;;;;;1.83;1.60;;;;;;;9.34;84.07;98101.41;5039840;28;20044;-72
2023/01/16 09:58:34;;;;;;;3.50;2.05;;;;;;;9.98;82.72;98091.28;5028560;28;20473;-72
2023/01/16 10:00:05;;;;;;;3.40;1.90;;;;;;;9.75;80.00;98089.81;5047421;28;20036;-72
2023/01/16 10:02:34;;;;;;;3.77;2.00;;;;;;;9.93;80.67;98082.00;5047697;28;20033;-72
2023/01/16 10:05:04;;;;;;;8.73;2.37;;;;;;;9.59;86.24;98081.06;5047908;28;20084;-72
2023/01/16 10:07:38;;;;;;;4.00;2.23;;;;;;;10.02;82.17;98077.13;5044333;28;20037;-72
2023/01/16 10:10:43;;;;;;;4.23;2.07;;;;;;;9.34;84.78;98077.94;5047889;28;20051;-72
2023/01/16 10:13:22;;;;;;;3.97;2.13;;;;;;;9.75;85.80;98063.75;5047735;28;20117;-72
2023/01/16 10:15:53;;;;;;;3.30;2.10;;;;;;;9.39;85.45;98069.03;5047633;28;20492;-72
2023/01/16 10:18:40;;;;;;;4.27;2.40;;;;;;;9.53;84.18;98069.19;5044648;28;20112;-72
2023/01/16 10:21:16;;;;;;;5.83;2.07;;;;;;;9.83;79.63;98060.75;5027537;28;20061;-72
2023/01/16 10:24:12;;;;;;;7.30;2.10;;;;;;;10.04;83.79;98057.97;5046483;28;20116;-72
2023/01/16 10:26:58;;;;;;;5.97;2.00;;;;;;;9.43;81.59;98055.78;5048213;28;20037;-73
2023/01/16 10:29:33;;;;;;;4.20;2.00;;;;;;;9.73;84.79;98051.72;5051115;28;20112;-71
2023/01/16 10:32:01;;;;;;;2.53;2.07;;;;;;;9.56;85.93;98045.59;5028560;28;20143;-72
2023/01/16 10:34:53;;;;;;;4.17;2.03;;;;;;;9.53;85.53;98037.91;5034709;28;20437;-72
2023/01/16 10:37:19;;;;;;;3.27;2.13;;;;;;;9.72;83.23;98031.78;5033236;28;20493;-72
2023/01/16 10:39:45;;;;;;;2.87;2.07;;;;;;;9.64;80.86;98027.78;5072813;28;20033;-72
2023/01/16 10:50:59;;;;;;;;;;;;;;;10.43;78.74;98002.81;5030276;28;20120;-73
2023/01/16 10:53:25;;;;;;;4.27;1.73;;;;;;;9.91;79.08;98006.41;5037765;28;19999;-73
2023/01/16 10:55:52;;;;;;;3.37;1.90;;;;;;;10.31;78.83;98008.69;5046330;28;20017;-73
2023/01/16 10:58:17;;;;;;;3.17;2.23;;;;;;;10.25;75.92;98009.84;5039367;28;20476;-72
2023/01/16 11:00:43;;;;;;;2.63;1.93;;;;;;;10.54;76.21;98004.84;5047040;28;20037;-72
2023/01/16 11:03:17;;;;;;;2.73;1.70;;;;;;;10.63;74.52;98003.50;5034970;28;20542;-73
2023/01/16 11:05:43;;;;;;;3.07;1.80;;;;;;;10.83;72.80;97990.16;5027991;28;20073;-72
2023/01/16 11:08:14;;;;;;;2.90;1.60;;;;;;;10.82;74.56;97985.84;5032990;28;20051;-72
2023/01/16 11:10:42;;;;;;;2.43;1.60;;;;;;;10.65;73.89;97978.13;5049502;28;20036;-72
2023/01/16 11:18:49;;;;;;;1.90;1.33;;;;;;;11.26;72.30;97973.78;5052181;28;20047;-72
2023/01/16 11:21:28;;;;;;;2.87;1.43;;;;;;;10.78;73.64;97965.22;5052233;28;20021;-72
2023/01/16 11:24:24;;;;;;;5.50;1.50;;;;;;;11.36;70.38;97956.63;5049104;28;20028;-72
2023/01/16 11:26:54;;;;;;;2.53;1.27;;;;;;;11.56;71.52;97945.94;5047703;28;20087;-72
2023/01/16 11:29:23;;;;;;;1.40;1.30;;;;;;;11.74;70.50;97949.19;5046805;28;20139;-73
2023/01/16 11:31:54;;;;;;;2.60;1.10;;;;;;;11.77;72.65;97949.00;5050374;28;20025;-72
2023/01/16 11:34:22;;;;;;;3.10;1.20;;;;;;;11.26;70.21;97950.25;5082241;28;20423;-73
2023/01/16 11:36:48;;;;;;;1.70;1.47;;;;;;;10.99;70.96;97948.31;5045850;28;20029;-73
2023/01/16 11:39:22;;;;;;;0.70;0.70;;;;;;;11.60;68.78;97937.78;5036113;28;20075;-73
2023/01/16 11:41:51;;;;;;;1.20;0.90;;;;;;;12.23;66.86;97930.50;5046035;28;20021;-73
2023/01/16 11:47:16;;;;;;;0.67;0.67;;;;;;;11.19;69.52;97930.63;5058750;28;20047;-72
2023/01/16 11:49:53;;;;;;;1.37;1.10;;;;;;;11.70;67.90;97912.75;5052359;28;20067;-73
2023/01/16 11:52:29;;;;;;;2.30;0.80;;;;;;;11.93;67.39;97918.34;5047587;28;20036;-73
2023/01/16 11:54:58;;;;;;;2.03;0.60;;;;;;;11.60;68.05;97927.31;5049764;28;20120;-73
2023/01/16 11:57:26;;;;;;;0.77;0.60;;;;;;;11.11;70.63;97919.78;5050187;28;20052;-73
2023/01/16 12:00:02;;;;;;;0.50;0.50;;;;;;;11.14;70.61;97914.38;5067549;28;20138;-72
2023/01/16 12:03:02;;;;;;;0.67;0.67;;;;;;;11.51;72.07;97917.41;5045683;28;20020;-73
2023/01/16 12:05:56;;;;;;;0.50;0.50;;;;;;;11.53;72.32;97905.09;5035401;28;20045;-73
2023/01/16 12:08:39;;;;;;;0.90;0.90;;;;;;;12.01;69.32;97900.41;5049972;28;20035;-71
2023/01/16 12:11:30;;;;;;;0.90;0.90;;;;;;;11.40;71.48;97897.13;5037072;28;20027;-71
2023/01/16 12:14:20;;;;;;;1.87;1.00;;;;;;;11.96;69.06;97886.75;5054047;28;20035;-71
2023/01/16 12:17:00;;;;;;;0.80;0.80;;;;;;;12.59;66.40;97883.72;5039104;28;20116;-71
2023/01/16 12:19:44;;;;;;;2.00;1.00;;;;;;;12.46;66.73;97884.50;5063604;28;20594;-71
2023/01/16 12:22:28;;;;;;;1.80;1.03;;;;;;;12.48;64.51;97876.53;5076900;28;20488;-71
2023/01/16 12:25:17;;;;;;;2.23;1.00;;;;;;;12.12;66.42;97865.72;5045210;28;20032;-70
2023/01/16 12:28:13;;;;;;;1.80;0.97;;;;;;;12.02;64.76;97864.59;5044537;28;20036;-71
2023/01/16 12:30:47;;;;;;;4.00;0.90;;;;;;;12.51;65.98;97860.63;5049709;28;20036;-71
2023/01/16 12:33:32;;;;;;;2.67;0.80;;;;;;;11.43;68.55;97862.09;5060497;28;20488;-70
2023/01/16 12:36:01;;;;;;;2.93;0.80;;;;;;;10.98;71.59;97863.00;5033347;28;20052;-71
2023/01/16 12:38:35;;;;;;;1.80;1.00;;;;;;;11.74;69.08;97855.00;5039110;28;20021;-71
2023/01/16 12:43:18;;;;;;;1.20;0.87;;;;;;;12.39;65.53;97857.88;5077939;28;20014;-70
2023/01/16 12:44:34;;;;;;;7.43;2.57;;;;;;;12.42;65.45;97850.72;5049886;28;20032;-71
2023/01/16 12:47:21;;;;;;;4.35;2.38;;;;;;;11.93;66.20;97849.47;4996649;28;20030;-71